createdAt,value
2023-04-29T00:00:40.000Z,1016.46
2023-04-29T00:01:40.000Z,1016.43
2023-04-29T00:02:40.000Z,1016.44
2023-04-29T00:03:40.000Z,1016.46
2023-04-29T00:04:40.000Z,1016.45
2023-04-29T00:05:41.000Z,1016.46
2023-04-29T00:06:41.000Z,1016.46
2023-04-29T00:07:41.000Z,1016.46
2023-04-29T00:08:41.000Z,1016.44
2023-04-29T00:09:42.000Z,1016.47
2023-04-29T00:10:42.000Z,1016.46
2023-04-29T00:11:42.000Z,1016.44
2023-04-29T00:12:43.000Z,1016.47
2023-04-29T00:13:43.000Z,1016.47
2023-04-29T00:14:43.000Z,1016.5
2023-04-29T00:15:43.000Z,1016.48
2023-04-29T00:16:44.000Z,1016.46
2023-04-29T00:17:44.000Z,1016.51
2023-04-29T00:18:44.000Z,1016.6
2023-04-29T00:19:44.000Z,1016.76
2023-04-29T00:20:45.000Z,1016.75
2023-04-29T00:21:45.000Z,1016.74
2023-04-29T00:22:45.000Z,1016.82
2023-04-29T00:23:45.000Z,1016.87
2023-04-29T00:24:46.000Z,1016.82
2023-04-29T00:25:46.000Z,1016.78
2023-04-29T00:26:46.000Z,1016.88
2023-04-29T00:27:46.000Z,1016.88
2023-04-29T00:28:47.000Z,1016.88
2023-04-29T00:29:47.000Z,1016.83
2023-04-29T00:30:47.000Z,1016.83
2023-04-29T00:31:47.000Z,1016.82
2023-04-29T00:32:47.000Z,1016.77
2023-04-29T00:33:48.000Z,1016.83
2023-04-29T00:34:48.000Z,1016.78
2023-04-29T00:35:48.000Z,1016.75
2023-04-29T00:36:49.000Z,1016.81
2023-04-29T00:37:49.000Z,1016.8
2023-04-29T00:38:49.000Z,1016.79
2023-04-29T00:39:50.000Z,1016.72
2023-04-29T00:40:50.000Z,1016.71
2023-04-29T00:41:50.000Z,1016.71
2023-04-29T00:42:50.000Z,1016.74
2023-04-29T00:43:51.000Z,1016.75
2023-04-29T00:44:51.000Z,1016.75
2023-04-29T00:45:51.000Z,1016.75
2023-04-29T00:46:52.000Z,1016.69
2023-04-29T00:47:52.000Z,1016.68
2023-04-29T00:48:52.000Z,1016.69
2023-04-29T00:49:52.000Z,1016.67
2023-04-29T00:50:53.000Z,1016.72
2023-04-29T00:51:53.000Z,1016.71
2023-04-29T00:52:53.000Z,1016.67
2023-04-29T00:53:53.000Z,1016.71
2023-04-29T00:54:54.000Z,1016.69
2023-04-29T00:55:54.000Z,1016.7
2023-04-29T00:56:54.000Z,1016.74
2023-04-29T00:57:54.000Z,1016.74
2023-04-29T00:58:55.000Z,1016.76
2023-04-29T00:59:55.000Z,1016.8
2023-04-29T01:00:55.000Z,1016.72
2023-04-29T01:01:55.000Z,1016.77
2023-04-29T01:02:56.000Z,1016.75
2023-04-29T01:03:56.000Z,1016.7
2023-04-29T01:04:56.000Z,1016.74
2023-04-29T01:05:56.000Z,1016.75
2023-04-29T01:06:57.000Z,1016.74
2023-04-29T01:07:57.000Z,1016.76
2023-04-29T01:08:57.000Z,1016.75
2023-04-29T01:09:57.000Z,1016.79
2023-04-29T01:10:58.000Z,1016.77
2023-04-29T01:11:58.000Z,1016.76
2023-04-29T01:12:58.000Z,1016.72
2023-04-29T01:13:58.000Z,1016.75
2023-04-29T01:14:59.000Z,1016.73
2023-04-29T01:15:59.000Z,1016.78
2023-04-29T01:16:59.000Z,1016.75
2023-04-29T01:17:59.000Z,1016.71
2023-04-29T01:19:00.000Z,1016.69
2023-04-29T01:20:00.000Z,1016.71
2023-04-29T01:21:00.000Z,1016.73
2023-04-29T01:22:00.000Z,1016.76
2023-04-29T01:23:01.000Z,1016.72
2023-04-29T01:24:01.000Z,1016.69
2023-04-29T01:25:01.000Z,1016.68
2023-04-29T01:26:01.000Z,1016.69
2023-04-29T01:27:02.000Z,1016.7
2023-04-29T01:28:02.000Z,1016.64
2023-04-29T01:29:02.000Z,1016.66
2023-04-29T01:30:02.000Z,1016.64
2023-04-29T01:31:03.000Z,1016.68
2023-04-29T01:32:03.000Z,1016.68
2023-04-29T01:33:03.000Z,1016.72
2023-04-29T01:34:03.000Z,1016.74
2023-04-29T01:35:04.000Z,1016.74
2023-04-29T01:36:04.000Z,1016.81
2023-04-29T01:37:04.000Z,1016.8
2023-04-29T01:38:04.000Z,1016.82
2023-04-29T01:39:05.000Z,1016.86
2023-04-29T01:40:05.000Z,1016.85
2023-04-29T01:41:05.000Z,1016.85
2023-04-29T01:42:05.000Z,1016.87
2023-04-29T01:43:06.000Z,1016.87
2023-04-29T01:44:06.000Z,1016.89
2023-04-29T01:45:06.000Z,1016.88
2023-04-29T01:46:06.000Z,1016.89
2023-04-29T01:47:07.000Z,1016.9
2023-04-29T01:48:07.000Z,1016.85
2023-04-29T01:49:07.000Z,1016.86
2023-04-29T01:50:07.000Z,1016.84
2023-04-29T01:51:08.000Z,1016.89
2023-04-29T01:52:08.000Z,1016.88
2023-04-29T01:53:08.000Z,1016.85
2023-04-29T01:54:08.000Z,1016.85
2023-04-29T01:55:09.000Z,1016.81
2023-04-29T01:56:09.000Z,1016.83
2023-04-29T01:57:09.000Z,1016.84
2023-04-29T01:58:09.000Z,1016.86
2023-04-29T01:59:10.000Z,1016.84
2023-04-29T02:00:10.000Z,1016.84
2023-04-29T02:01:10.000Z,1016.88
2023-04-29T02:02:10.000Z,1016.87
2023-04-29T02:03:11.000Z,1016.88
2023-04-29T02:04:11.000Z,1016.88
2023-04-29T02:05:11.000Z,1016.88
2023-04-29T02:06:12.000Z,1016.89
2023-04-29T02:07:12.000Z,1016.88
2023-04-29T02:08:12.000Z,1016.9
2023-04-29T02:09:12.000Z,1016.88
2023-04-29T02:10:12.000Z,1016.9
2023-04-29T02:11:13.000Z,1016.88
2023-04-29T02:12:13.000Z,1016.89
2023-04-29T02:13:13.000Z,1016.92
2023-04-29T02:14:14.000Z,1016.91
2023-04-29T02:15:14.000Z,1016.95
2023-04-29T02:16:14.000Z,1016.94
2023-04-29T02:17:14.000Z,1016.92
2023-04-29T02:18:15.000Z,1016.96
2023-04-29T02:19:15.000Z,1016.97
2023-04-29T02:20:15.000Z,1016.92
2023-04-29T02:21:15.000Z,1016.97
2023-04-29T02:22:15.000Z,1017.02
2023-04-29T02:23:16.000Z,1016.93
2023-04-29T02:24:16.000Z,1016.95
2023-04-29T02:25:16.000Z,1016.96
2023-04-29T02:26:17.000Z,1017.05
2023-04-29T02:27:17.000Z,1017.09
2023-04-29T02:28:17.000Z,1017.02
2023-04-29T02:29:17.000Z,1017.07
2023-04-29T02:30:18.000Z,1017.07
2023-04-29T02:31:18.000Z,1017.07
2023-04-29T02:32:18.000Z,1017.11
2023-04-29T02:33:18.000Z,1017.14
2023-04-29T02:34:19.000Z,1017.1
2023-04-29T02:35:19.000Z,1017.11
2023-04-29T02:36:19.000Z,1017.12
2023-04-29T02:37:19.000Z,1017.15
2023-04-29T02:38:20.000Z,1017.1
2023-04-29T02:39:20.000Z,1017.12
2023-04-29T02:40:20.000Z,1017.08
2023-04-29T02:41:20.000Z,1017.14
2023-04-29T02:42:21.000Z,1017.13
2023-04-29T02:43:21.000Z,1017.14
2023-04-29T02:44:21.000Z,1017.14
2023-04-29T02:45:22.000Z,1017.16
2023-04-29T02:46:22.000Z,1017.1
2023-04-29T02:47:22.000Z,1017.12
2023-04-29T02:48:22.000Z,1017.07
2023-04-29T02:49:22.000Z,1017.13
2023-04-29T02:50:23.000Z,1017.06
2023-04-29T02:51:23.000Z,1017.12
2023-04-29T02:52:23.000Z,1017.11
2023-04-29T02:53:24.000Z,1017.1
2023-04-29T02:54:24.000Z,1017.09
2023-04-29T02:55:24.000Z,1017.06
2023-04-29T02:56:24.000Z,1017.04
2023-04-29T02:57:25.000Z,1017.02
2023-04-29T02:58:25.000Z,1017.04
2023-04-29T02:59:25.000Z,1017.05
2023-04-29T03:00:25.000Z,1017.06
2023-04-29T03:01:26.000Z,1017.08
2023-04-29T03:02:26.000Z,1017.06
2023-04-29T03:03:26.000Z,1017.06
2023-04-29T03:04:26.000Z,1017.1
2023-04-29T03:05:27.000Z,1017.1
2023-04-29T03:06:27.000Z,1017.06
2023-04-29T03:07:27.000Z,1017.03
2023-04-29T03:08:27.000Z,1017.04
2023-04-29T03:09:28.000Z,1017.05
2023-04-29T03:10:28.000Z,1017.03
2023-04-29T03:11:28.000Z,1017.08
2023-04-29T03:12:28.000Z,1017.07
2023-04-29T03:13:29.000Z,1017.07
2023-04-29T03:14:29.000Z,1017.02
2023-04-29T03:15:29.000Z,1017.03
2023-04-29T03:16:29.000Z,1017.06
2023-04-29T03:17:30.000Z,1017.05
2023-04-29T03:18:30.000Z,1017.09
2023-04-29T03:19:30.000Z,1017.05
2023-04-29T03:20:30.000Z,1017.04
2023-04-29T03:21:31.000Z,1017.04
2023-04-29T03:22:31.000Z,1017.03
2023-04-29T03:23:31.000Z,1017.03
2023-04-29T03:24:32.000Z,1017.06
2023-04-29T03:25:32.000Z,1017.06
2023-04-29T03:26:32.000Z,1017.05
2023-04-29T03:27:32.000Z,1017.03
2023-04-29T03:28:33.000Z,1017.03
2023-04-29T03:29:33.000Z,1017.03
2023-04-29T03:30:33.000Z,1017.0
2023-04-29T03:31:33.000Z,1017.0
2023-04-29T03:32:34.000Z,1017.06
2023-04-29T03:33:34.000Z,1017.01
2023-04-29T03:34:34.000Z,1017.03
2023-04-29T03:35:34.000Z,1016.99
2023-04-29T03:36:35.000Z,1017.03
2023-04-29T03:37:35.000Z,1016.98
2023-04-29T03:38:35.000Z,1017.0
2023-04-29T03:39:35.000Z,1017.01
2023-04-29T03:40:36.000Z,1017.01
2023-04-29T03:41:36.000Z,1017.02
2023-04-29T03:42:36.000Z,1017.01
2023-04-29T03:43:36.000Z,1017.0
2023-04-29T03:44:37.000Z,1016.97
2023-04-29T03:45:37.000Z,1017.01
2023-04-29T03:46:37.000Z,1016.99
2023-04-29T03:47:37.000Z,1017.03
2023-04-29T03:48:37.000Z,1017.0
2023-04-29T03:49:38.000Z,1017.01
2023-04-29T03:50:38.000Z,1017.02
2023-04-29T03:51:38.000Z,1017.01
2023-04-29T03:52:39.000Z,1016.97
2023-04-29T03:53:39.000Z,1016.99
2023-04-29T03:54:39.000Z,1017.02
2023-04-29T03:55:39.000Z,1017.02
2023-04-29T03:56:40.000Z,1016.99
2023-04-29T03:57:40.000Z,1017.0
2023-04-29T03:58:40.000Z,1017.0
2023-04-29T03:59:40.000Z,1017.03
2023-04-29T04:00:41.000Z,1017.03
2023-04-29T04:01:41.000Z,1017.04
2023-04-29T04:02:41.000Z,1017.03
2023-04-29T04:03:41.000Z,1017.04
2023-04-29T04:04:42.000Z,1017.07
2023-04-29T04:05:42.000Z,1017.09
2023-04-29T04:06:42.000Z,1017.09
2023-04-29T04:07:42.000Z,1017.12
2023-04-29T04:08:43.000Z,1017.03
2023-04-29T04:09:43.000Z,1017.1
2023-04-29T04:10:43.000Z,1017.08
2023-04-29T04:11:43.000Z,1017.09
2023-04-29T04:12:44.000Z,1017.11
2023-04-29T04:13:44.000Z,1017.16
2023-04-29T04:14:44.000Z,1017.13
2023-04-29T04:15:44.000Z,1017.15
2023-04-29T04:16:45.000Z,1017.17
2023-04-29T04:17:45.000Z,1017.2
2023-04-29T04:18:45.000Z,1017.21
2023-04-29T04:19:46.000Z,1017.23
2023-04-29T04:20:46.000Z,1017.26
2023-04-29T04:21:46.000Z,1017.25
2023-04-29T04:22:46.000Z,1017.25
2023-04-29T04:23:47.000Z,1017.26
2023-04-29T04:24:47.000Z,1017.26
2023-04-29T04:25:47.000Z,1017.27
2023-04-29T04:26:47.000Z,1017.26
2023-04-29T04:27:48.000Z,1017.27
2023-04-29T04:28:48.000Z,1017.27
2023-04-29T04:29:48.000Z,1017.3
2023-04-29T04:30:48.000Z,1017.27
2023-04-29T04:31:49.000Z,1017.3
2023-04-29T04:32:49.000Z,1017.33
2023-04-29T04:33:49.000Z,1017.32
2023-04-29T04:34:49.000Z,1017.33
2023-04-29T04:35:50.000Z,1017.3
2023-04-29T04:36:50.000Z,1017.33
2023-04-29T04:37:50.000Z,1017.31
2023-04-29T04:38:50.000Z,1017.33
2023-04-29T04:39:51.000Z,1017.29
2023-04-29T04:40:51.000Z,1017.29
2023-04-29T04:41:51.000Z,1017.33
2023-04-29T04:42:51.000Z,1017.37
2023-04-29T04:43:52.000Z,1017.33
2023-04-29T04:44:52.000Z,1017.33
2023-04-29T04:45:52.000Z,1017.32
2023-04-29T04:46:52.000Z,1017.33
2023-04-29T04:47:53.000Z,1017.36
2023-04-29T04:48:53.000Z,1017.33
2023-04-29T04:49:53.000Z,1017.35
2023-04-29T04:50:53.000Z,1017.41
2023-04-29T04:51:54.000Z,1017.37
2023-04-29T04:52:54.000Z,1017.34
2023-04-29T04:53:54.000Z,1017.41
2023-04-29T04:54:54.000Z,1017.37
2023-04-29T04:55:54.000Z,1017.37
2023-04-29T04:56:55.000Z,1017.35
2023-04-29T04:57:55.000Z,1017.41
2023-04-29T04:58:55.000Z,1017.37
2023-04-29T04:59:55.000Z,1017.37
2023-04-29T05:00:56.000Z,1017.39
2023-04-29T05:01:56.000Z,1017.41
2023-04-29T05:02:56.000Z,1017.42
2023-04-29T05:03:56.000Z,1017.45
2023-04-29T05:04:57.000Z,1017.47
2023-04-29T05:05:57.000Z,1017.5
2023-04-29T05:06:57.000Z,1017.42
2023-04-29T05:07:57.000Z,1017.41
2023-04-29T05:08:58.000Z,1017.42
2023-04-29T05:09:58.000Z,1017.46
2023-04-29T05:10:58.000Z,1017.45
2023-04-29T05:11:59.000Z,1017.47
2023-04-29T05:12:59.000Z,1017.42
2023-04-29T05:13:59.000Z,1017.51
2023-04-29T05:14:59.000Z,1017.48
2023-04-29T05:16:00.000Z,1017.51
2023-04-29T05:17:00.000Z,1017.48
2023-04-29T05:18:00.000Z,1017.5
2023-04-29T05:19:00.000Z,1017.49
2023-04-29T05:20:01.000Z,1017.52
2023-04-29T05:21:01.000Z,1017.5
2023-04-29T05:22:01.000Z,1017.51
2023-04-29T05:23:02.000Z,1017.52
2023-04-29T05:24:02.000Z,1017.56
2023-04-29T05:25:02.000Z,1017.54
2023-04-29T05:26:02.000Z,1017.57
2023-04-29T05:27:03.000Z,1017.61
2023-04-29T05:28:03.000Z,1017.62
2023-04-29T05:29:03.000Z,1017.58
2023-04-29T05:30:03.000Z,1017.64
2023-04-29T05:31:04.000Z,1017.64
2023-04-29T05:32:04.000Z,1017.66
2023-04-29T05:33:04.000Z,1017.66
2023-04-29T05:34:04.000Z,1017.68
2023-04-29T05:35:05.000Z,1017.68
2023-04-29T05:36:05.000Z,1017.71
2023-04-29T05:37:05.000Z,1017.68
2023-04-29T05:38:05.000Z,1017.66
2023-04-29T05:39:06.000Z,1017.69
2023-04-29T05:40:06.000Z,1017.67
2023-04-29T05:41:06.000Z,1017.69
2023-04-29T05:42:06.000Z,1017.66
2023-04-29T05:43:07.000Z,1017.69
2023-04-29T05:44:07.000Z,1017.66
2023-04-29T05:45:07.000Z,1017.67
2023-04-29T05:46:07.000Z,1017.74
2023-04-29T05:47:08.000Z,1017.68
2023-04-29T05:48:08.000Z,1017.72
2023-04-29T05:49:08.000Z,1017.68
2023-04-29T05:50:08.000Z,1017.69
2023-04-29T05:51:09.000Z,1017.68
2023-04-29T05:52:09.000Z,1017.71
2023-04-29T05:53:09.000Z,1017.66
2023-04-29T05:54:10.000Z,1017.67
2023-04-29T05:55:10.000Z,1017.65
2023-04-29T05:56:10.000Z,1017.65
2023-04-29T05:57:10.000Z,1017.66
2023-04-29T05:58:11.000Z,1017.72
2023-04-29T05:59:11.000Z,1017.7
2023-04-29T06:00:11.000Z,1017.7
2023-04-29T06:01:11.000Z,1017.73
2023-04-29T06:02:12.000Z,1017.74
2023-04-29T06:03:12.000Z,1017.69
2023-04-29T06:04:12.000Z,1017.68
2023-04-29T06:05:12.000Z,1017.73
2023-04-29T06:06:13.000Z,1017.77
2023-04-29T06:07:13.000Z,1017.76
2023-04-29T06:08:13.000Z,1017.79
2023-04-29T06:09:13.000Z,1017.8
2023-04-29T06:10:14.000Z,1017.82
2023-04-29T06:11:14.000Z,1017.83
2023-04-29T06:12:14.000Z,1017.87
2023-04-29T06:13:15.000Z,1017.83
2023-04-29T06:14:15.000Z,1017.86
2023-04-29T06:15:15.000Z,1017.92
2023-04-29T06:16:15.000Z,1017.93
2023-04-29T06:17:16.000Z,1017.96
2023-04-29T06:18:16.000Z,1017.97
2023-04-29T06:19:16.000Z,1018.01
2023-04-29T06:20:16.000Z,1018.01
2023-04-29T06:21:17.000Z,1018.02
2023-04-29T06:22:17.000Z,1018.06
2023-04-29T06:23:17.000Z,1018.07
2023-04-29T06:24:17.000Z,1018.08
2023-04-29T06:25:17.000Z,1018.09
2023-04-29T06:26:18.000Z,1018.14
2023-04-29T06:27:18.000Z,1018.14
2023-04-29T06:28:18.000Z,1018.12
2023-04-29T06:29:19.000Z,1018.08
2023-04-29T06:30:19.000Z,1018.14
2023-04-29T06:31:19.000Z,1018.16
2023-04-29T06:32:19.000Z,1018.17
2023-04-29T06:33:20.000Z,1018.2
2023-04-29T06:34:20.000Z,1018.23
2023-04-29T06:35:20.000Z,1018.24
2023-04-29T06:36:20.000Z,1018.24
2023-04-29T06:37:21.000Z,1018.22
2023-04-29T06:38:21.000Z,1018.23
2023-04-29T06:39:21.000Z,1018.29
2023-04-29T06:40:21.000Z,1018.25
2023-04-29T06:41:22.000Z,1018.28
2023-04-29T06:42:22.000Z,1018.28
2023-04-29T06:43:22.000Z,1018.31
2023-04-29T06:44:22.000Z,1018.3
2023-04-29T06:45:23.000Z,1018.27
2023-04-29T06:46:23.000Z,1018.23
2023-04-29T06:47:23.000Z,1018.24
2023-04-29T06:48:23.000Z,1018.27
2023-04-29T06:49:24.000Z,1018.26
2023-04-29T06:50:24.000Z,1018.31
2023-04-29T06:51:24.000Z,1018.33
2023-04-29T06:52:24.000Z,1018.31
2023-04-29T06:53:25.000Z,1018.3
2023-04-29T06:54:25.000Z,1018.29
2023-04-29T06:55:25.000Z,1018.29
2023-04-29T06:56:25.000Z,1018.31
2023-04-29T06:57:26.000Z,1018.29
2023-04-29T06:58:26.000Z,1018.33
2023-04-29T06:59:26.000Z,1018.31
2023-04-29T07:00:27.000Z,1018.31
2023-04-29T07:01:27.000Z,1018.33
2023-04-29T07:02:27.000Z,1018.37
2023-04-29T07:03:27.000Z,1018.36
2023-04-29T07:04:28.000Z,1018.38
2023-04-29T07:05:28.000Z,1018.36
2023-04-29T07:06:28.000Z,1018.35
2023-04-29T07:07:28.000Z,1018.34
2023-04-29T07:08:29.000Z,1018.34
2023-04-29T07:09:29.000Z,1018.38
2023-04-29T07:10:29.000Z,1018.38
2023-04-29T07:11:29.000Z,1018.32
2023-04-29T07:12:30.000Z,1018.43
2023-04-29T07:13:30.000Z,1018.43
2023-04-29T07:14:30.000Z,1018.4
2023-04-29T07:15:30.000Z,1018.41
2023-04-29T07:16:31.000Z,1018.46
2023-04-29T07:17:31.000Z,1018.43
2023-04-29T07:18:31.000Z,1018.49
2023-04-29T07:19:31.000Z,1018.49
2023-04-29T07:20:32.000Z,1018.49
2023-04-29T07:21:32.000Z,1018.52
2023-04-29T07:22:32.000Z,1018.61
2023-04-29T07:23:32.000Z,1018.55
2023-04-29T07:24:33.000Z,1018.64
2023-04-29T07:25:33.000Z,1018.61
2023-04-29T07:26:33.000Z,1018.64
2023-04-29T07:27:33.000Z,1018.67
2023-04-29T07:28:34.000Z,1018.64
2023-04-29T07:29:34.000Z,1018.64
2023-04-29T07:30:34.000Z,1018.68
2023-04-29T07:31:35.000Z,1018.68
2023-04-29T07:32:35.000Z,1018.68
2023-04-29T07:33:35.000Z,1018.69
2023-04-29T07:34:35.000Z,1018.75
2023-04-29T07:35:36.000Z,1018.77
2023-04-29T07:36:36.000Z,1018.79
2023-04-29T07:37:36.000Z,1018.73
2023-04-29T07:38:36.000Z,1018.76
2023-04-29T07:39:37.000Z,1018.76
2023-04-29T07:40:37.000Z,1018.79
2023-04-29T07:41:37.000Z,1018.77
2023-04-29T07:42:38.000Z,1018.8
2023-04-29T07:43:38.000Z,1018.81
2023-04-29T07:44:38.000Z,1018.83
2023-04-29T07:45:38.000Z,1018.87
2023-04-29T07:46:39.000Z,1018.88
2023-04-29T07:47:39.000Z,1018.9
2023-04-29T07:48:39.000Z,1018.95
2023-04-29T07:49:39.000Z,1018.91
2023-04-29T07:50:40.000Z,1018.9
2023-04-29T07:51:40.000Z,1018.9
2023-04-29T07:52:40.000Z,1018.9
2023-04-29T07:53:41.000Z,1019.0
2023-04-29T07:54:41.000Z,1019.0
2023-04-29T07:55:41.000Z,1019.01
2023-04-29T07:56:41.000Z,1018.98
2023-04-29T07:57:42.000Z,1019.02
2023-04-29T07:58:42.000Z,1019.0
2023-04-29T07:59:42.000Z,1019.02
2023-04-29T08:00:42.000Z,1019.01
2023-04-29T08:01:43.000Z,1019.08
2023-04-29T08:02:43.000Z,1019.12
2023-04-29T08:03:43.000Z,1019.14
2023-04-29T08:04:43.000Z,1019.11
2023-04-29T08:05:44.000Z,1019.09
2023-04-29T08:06:44.000Z,1019.09
2023-04-29T08:07:44.000Z,1019.11
2023-04-29T08:08:44.000Z,1019.19
2023-04-29T08:09:45.000Z,1019.25
2023-04-29T08:10:45.000Z,1019.27
2023-04-29T08:11:45.000Z,1019.23
2023-04-29T08:12:45.000Z,1019.22
2023-04-29T08:13:46.000Z,1019.26
2023-04-29T08:14:46.000Z,1019.29
2023-04-29T08:15:46.000Z,1019.31
2023-04-29T08:16:46.000Z,1019.35
2023-04-29T08:17:47.000Z,1019.31
2023-04-29T08:18:47.000Z,1019.32
2023-04-29T08:19:47.000Z,1019.41
2023-04-29T08:20:47.000Z,1019.47
2023-04-29T08:21:48.000Z,1019.49
2023-04-29T08:22:48.000Z,1019.56
2023-04-29T08:23:48.000Z,1019.51
2023-04-29T08:24:48.000Z,1019.51
2023-04-29T08:25:49.000Z,1019.53
2023-04-29T08:26:49.000Z,1019.58
2023-04-29T08:27:49.000Z,1019.61
2023-04-29T08:28:49.000Z,1019.58
2023-04-29T08:29:50.000Z,1019.61
2023-04-29T08:30:50.000Z,1019.61
2023-04-29T08:31:50.000Z,1019.63
2023-04-29T08:32:50.000Z,1019.64
2023-04-29T08:33:51.000Z,1019.63
2023-04-29T08:34:51.000Z,1019.64
2023-04-29T08:35:51.000Z,1019.63
2023-04-29T08:36:51.000Z,1019.68
2023-04-29T08:37:52.000Z,1019.67
2023-04-29T08:38:52.000Z,1019.72
2023-04-29T08:39:52.000Z,1019.73
2023-04-29T08:40:52.000Z,1019.68
2023-04-29T08:41:53.000Z,1019.71
2023-04-29T08:42:53.000Z,1019.78
2023-04-29T08:43:53.000Z,1019.73
2023-04-29T08:44:53.000Z,1019.76
2023-04-29T08:45:54.000Z,1019.78
2023-04-29T08:46:54.000Z,1019.77
2023-04-29T08:47:54.000Z,1019.82
2023-04-29T08:48:54.000Z,1019.85
2023-04-29T08:49:55.000Z,1019.87
2023-04-29T08:50:55.000Z,1019.83
2023-04-29T08:51:55.000Z,1019.87
2023-04-29T08:52:55.000Z,1019.89
2023-04-29T08:53:56.000Z,1019.93
2023-04-29T08:54:56.000Z,1019.91
2023-04-29T08:55:56.000Z,1019.94
2023-04-29T08:56:56.000Z,1019.96
2023-04-29T08:57:57.000Z,1019.99
2023-04-29T08:58:57.000Z,1019.98
2023-04-29T08:59:57.000Z,1020.04
2023-04-29T09:00:57.000Z,1020.03
2023-04-29T09:01:58.000Z,1020.05
2023-04-29T09:02:58.000Z,1020.04
2023-04-29T09:03:58.000Z,1020.03
2023-04-29T09:04:59.000Z,1020.11
2023-04-29T09:05:59.000Z,1020.05
2023-04-29T09:06:59.000Z,1020.09
2023-04-29T09:07:59.000Z,1020.12
2023-04-29T09:09:00.000Z,1020.08
2023-04-29T09:10:00.000Z,1020.11
2023-04-29T09:11:00.000Z,1020.09
2023-04-29T09:12:00.000Z,1020.07
2023-04-29T09:13:01.000Z,1020.15
2023-04-29T09:14:06.000Z,1020.14
2023-04-29T09:15:06.000Z,1020.1
2023-04-29T09:16:06.000Z,1020.08
2023-04-29T09:17:07.000Z,1020.07
2023-04-29T09:18:07.000Z,1020.1
2023-04-29T09:19:07.000Z,1020.12
2023-04-29T09:20:07.000Z,1020.12
2023-04-29T09:21:08.000Z,1020.13
2023-04-29T09:22:08.000Z,1020.16
2023-04-29T09:23:08.000Z,1020.2
2023-04-29T09:24:08.000Z,1020.14
2023-04-29T09:25:09.000Z,1020.07
2023-04-29T09:26:09.000Z,1020.07
2023-04-29T09:27:09.000Z,1020.08
2023-04-29T09:28:10.000Z,1020.0
2023-04-29T09:29:10.000Z,1020.09
2023-04-29T09:30:10.000Z,1020.06
2023-04-29T09:31:10.000Z,1020.08
2023-04-29T09:32:11.000Z,1020.14
2023-04-29T09:33:11.000Z,1020.16
2023-04-29T09:34:11.000Z,1020.04
2023-04-29T09:35:11.000Z,1020.2
2023-04-29T09:36:12.000Z,1020.26
2023-04-29T09:37:12.000Z,1020.22
2023-04-29T09:38:12.000Z,1020.3
2023-04-29T09:39:12.000Z,1020.27
2023-04-29T09:40:13.000Z,1020.24
2023-04-29T09:41:13.000Z,1020.29
2023-04-29T09:42:13.000Z,1020.24
2023-04-29T09:43:13.000Z,1020.25
2023-04-29T09:44:14.000Z,1020.27
2023-04-29T09:45:14.000Z,1020.32
2023-04-29T09:46:14.000Z,1020.31
2023-04-29T09:47:14.000Z,1020.31
2023-04-29T09:48:15.000Z,1020.34
2023-04-29T09:49:15.000Z,1020.42
2023-04-29T09:50:15.000Z,1020.4
2023-04-29T09:51:16.000Z,1020.41
2023-04-29T09:52:16.000Z,1020.46
2023-04-29T09:53:16.000Z,1020.5
2023-04-29T09:54:16.000Z,1020.52
2023-04-29T09:55:17.000Z,1020.57
2023-04-29T09:56:17.000Z,1020.59
2023-04-29T09:57:17.000Z,1020.62
2023-04-29T09:58:17.000Z,1020.65
2023-04-29T09:59:18.000Z,1020.72
2023-04-29T10:00:18.000Z,1020.75
2023-04-29T10:01:18.000Z,1020.68
2023-04-29T10:02:23.000Z,1020.74
2023-04-29T10:03:24.000Z,1020.76
2023-04-29T10:04:24.000Z,1020.72
2023-04-29T10:05:24.000Z,1020.79
2023-04-29T10:06:24.000Z,1020.77
2023-04-29T10:07:25.000Z,1020.76
2023-04-29T10:08:25.000Z,1020.79
2023-04-29T10:09:25.000Z,1020.8
2023-04-29T10:10:25.000Z,1020.92
2023-04-29T10:11:26.000Z,1020.87
2023-04-29T10:12:26.000Z,1020.8
2023-04-29T10:13:26.000Z,1020.85
2023-04-29T10:14:26.000Z,1020.84
2023-04-29T10:15:27.000Z,1020.84
2023-04-29T10:16:27.000Z,1020.88
2023-04-29T10:17:27.000Z,1020.88
2023-04-29T10:18:27.000Z,1020.88
2023-04-29T10:19:28.000Z,1020.91
2023-04-29T10:20:28.000Z,1020.9
2023-04-29T10:21:28.000Z,1020.9
2023-04-29T10:22:28.000Z,1020.91
2023-04-29T10:23:29.000Z,1021.0
2023-04-29T10:24:29.000Z,1020.95
2023-04-29T10:25:29.000Z,1020.91
2023-04-29T10:26:29.000Z,1020.89
2023-04-29T10:27:30.000Z,1020.89
2023-04-29T10:28:30.000Z,1020.9
2023-04-29T10:29:30.000Z,1020.95
2023-04-29T10:30:31.000Z,1020.89
2023-04-29T10:31:31.000Z,1020.91
2023-04-29T10:32:31.000Z,1020.89
2023-04-29T10:33:31.000Z,1020.92
2023-04-29T10:34:32.000Z,1020.91
2023-04-29T10:35:32.000Z,1020.95
2023-04-29T10:36:32.000Z,1020.95
2023-04-29T10:37:32.000Z,1021.01
2023-04-29T10:38:33.000Z,1020.96
2023-04-29T10:39:33.000Z,1020.98
2023-04-29T10:40:33.000Z,1020.98
2023-04-29T10:41:33.000Z,1021.03
2023-04-29T10:42:34.000Z,1021.02
2023-04-29T10:43:34.000Z,1021.04
2023-04-29T10:44:34.000Z,1021.06
2023-04-29T10:45:34.000Z,1021.09
2023-04-29T10:46:35.000Z,1021.09
2023-04-29T10:47:35.000Z,1021.1
2023-04-29T10:48:35.000Z,1021.06
2023-04-29T10:49:35.000Z,1021.11
2023-04-29T10:50:36.000Z,1021.16
2023-04-29T10:51:36.000Z,1021.19
2023-04-29T10:52:36.000Z,1021.2
2023-04-29T10:53:37.000Z,1021.16
2023-04-29T10:54:37.000Z,1021.18
2023-04-29T10:55:37.000Z,1021.15
2023-04-29T10:56:37.000Z,1021.2
2023-04-29T10:57:38.000Z,1021.26
2023-04-29T10:58:38.000Z,1021.21
2023-04-29T10:59:38.000Z,1021.18
2023-04-29T11:00:38.000Z,1021.19
2023-04-29T11:01:39.000Z,1021.2
2023-04-29T11:02:39.000Z,1021.22
2023-04-29T11:03:39.000Z,1021.17
2023-04-29T11:04:39.000Z,1021.22
2023-04-29T11:05:40.000Z,1021.21
2023-04-29T11:06:40.000Z,1021.22
2023-04-29T11:07:40.000Z,1021.19
2023-04-29T11:08:40.000Z,1021.25
2023-04-29T11:09:41.000Z,1021.33
2023-04-29T11:10:41.000Z,1021.26
2023-04-29T11:11:41.000Z,1021.27
2023-04-29T11:12:42.000Z,1021.31
2023-04-29T11:13:42.000Z,1021.29
2023-04-29T11:14:42.000Z,1021.3
2023-04-29T11:15:42.000Z,1021.37
2023-04-29T11:16:43.000Z,1021.35
2023-04-29T11:17:43.000Z,1021.34
2023-04-29T11:18:43.000Z,1021.35
2023-04-29T11:19:43.000Z,1021.29
2023-04-29T11:20:44.000Z,1021.34
2023-04-29T11:21:44.000Z,1021.45
2023-04-29T11:22:44.000Z,1021.45
2023-04-29T11:23:44.000Z,1021.42
2023-04-29T11:24:45.000Z,1021.51
2023-04-29T11:25:45.000Z,1021.53
2023-04-29T11:26:45.000Z,1021.6
2023-04-29T11:27:45.000Z,1021.7
2023-04-29T11:28:46.000Z,1021.62
2023-04-29T11:29:46.000Z,1021.64
2023-04-29T11:30:46.000Z,1021.71
2023-04-29T11:31:46.000Z,1021.72
2023-04-29T11:32:47.000Z,1021.7
2023-04-29T11:33:47.000Z,1021.74
2023-04-29T11:34:47.000Z,1021.76
2023-04-29T11:35:47.000Z,1021.8
2023-04-29T11:36:48.000Z,1021.8
2023-04-29T11:37:48.000Z,1021.78
2023-04-29T11:38:48.000Z,1021.81
2023-04-29T11:39:48.000Z,1021.81
2023-04-29T11:40:49.000Z,1021.8
2023-04-29T11:41:49.000Z,1021.78
2023-04-29T11:42:49.000Z,1021.79
2023-04-29T11:43:49.000Z,1021.79
2023-04-29T11:44:50.000Z,1021.81
2023-04-29T11:45:50.000Z,1021.79
2023-04-29T11:46:50.000Z,1021.82
2023-04-29T11:47:50.000Z,1021.81
2023-04-29T11:48:51.000Z,1021.86
2023-04-29T11:49:51.000Z,1021.9
2023-04-29T11:50:51.000Z,1021.86
2023-04-29T11:51:52.000Z,1021.89
2023-04-29T11:52:52.000Z,1021.89
2023-04-29T11:53:52.000Z,1021.83
2023-04-29T11:54:52.000Z,1021.88
2023-04-29T11:55:53.000Z,1021.91
2023-04-29T11:56:53.000Z,1021.89
2023-04-29T11:57:53.000Z,1021.94
2023-04-29T11:58:53.000Z,1021.97
2023-04-29T11:59:54.000Z,1022.06
2023-04-29T12:00:54.000Z,1022.01
2023-04-29T12:01:54.000Z,1021.96
2023-04-29T12:02:54.000Z,1022.03
2023-04-29T12:03:55.000Z,1021.95
2023-04-29T12:04:55.000Z,1022.01
2023-04-29T12:05:55.000Z,1022.05
2023-04-29T12:06:55.000Z,1022.08
2023-04-29T12:07:56.000Z,1022.11
2023-04-29T12:08:56.000Z,1022.09
2023-04-29T12:09:56.000Z,1022.24
2023-04-29T12:10:57.000Z,1022.17
2023-04-29T12:11:57.000Z,1022.17